createdAt,value
2017-07-26T00:00:03.464Z,1008.95
2017-07-26T00:05:03.311Z,1008.97
2017-07-26T00:10:02.684Z,1008.94
2017-07-26T00:15:03.158Z,1008.99
2017-07-26T00:20:02.842Z,1008.98
2017-07-26T00:25:03.293Z,1008.94
2017-07-26T00:30:02.794Z,1008.99
2017-07-26T00:35:03.302Z,1009.04
2017-07-26T00:40:02.712Z,1008.99
2017-07-26T00:45:03.206Z,1009.07
2017-07-26T00:50:02.627Z,1008.94
2017-07-26T00:55:03.075Z,1008.92
2017-07-26T01:00:02.559Z,1008.95
2017-07-26T01:05:03.061Z,1008.98
2017-07-26T01:10:02.587Z,1008.92
2017-07-26T01:15:02.879Z,1008.92
2017-07-26T01:20:03.250Z,1008.92
2017-07-26T01:25:02.548Z,1008.99
2017-07-26T01:30:02.934Z,1008.95
2017-07-26T01:35:03.288Z,1008.97
2017-07-26T01:40:02.663Z,1008.92
2017-07-26T01:45:03.151Z,1008.92
2017-07-26T01:50:02.511Z,1008.91
2017-07-26T01:55:02.967Z,1008.91
2017-07-26T02:00:03.505Z,1008.91
2017-07-26T02:05:02.961Z,1008.85
2017-07-26T02:10:02.580Z,1008.87
2017-07-26T02:15:02.870Z,1008.99
2017-07-26T02:20:03.177Z,1009.02
2017-07-26T02:25:03.515Z,1008.95
2017-07-26T02:30:03.088Z,1009.05
2017-07-26T02:35:02.579Z,1008.94
2017-07-26T02:40:03.148Z,1008.98
2017-07-26T02:45:02.604Z,1009
2017-07-26T02:50:03.147Z,1009.04
2017-07-26T02:55:02.785Z,1009.03
2017-07-26T03:00:03.329Z,1009.04
2017-07-26T03:05:02.774Z,1009.13
2017-07-26T03:10:03.138Z,1009.19
2017-07-26T03:15:02.574Z,1009.3
2017-07-26T03:20:03.104Z,1009.14
2017-07-26T03:25:02.617Z,1009.17
2017-07-26T03:30:02.944Z,1009.18
2017-07-26T03:35:03.442Z,1009.11
2017-07-26T03:40:02.930Z,1009.11
2017-07-26T03:45:03.381Z,1009.11
2017-07-26T03:50:02.860Z,1009.09
2017-07-26T03:55:03.377Z,1009.05
2017-07-26T04:00:02.639Z,1008.97
2017-07-26T04:05:03.147Z,1008.94
2017-07-26T04:10:02.642Z,1009.02
2017-07-26T04:15:02.988Z,1009.04
2017-07-26T04:20:03.314Z,1009.04
2017-07-26T04:25:02.656Z,1008.99
2017-07-26T04:30:02.804Z,1009.02
2017-07-26T04:35:03.328Z,1009
2017-07-26T04:40:02.618Z,1008.9
2017-07-26T04:45:02.940Z,1008.97
2017-07-26T04:50:03.253Z,1008.97
2017-07-26T04:55:02.566Z,1008.97
2017-07-26T05:00:03.220Z,1008.89
2017-07-26T05:05:02.683Z,1008.99
2017-07-26T05:10:02.991Z,1009.06
2017-07-26T05:15:03.503Z,1009.02
2017-07-26T05:20:03.013Z,1008.92
2017-07-26T05:25:03.328Z,1009.02
2017-07-26T05:30:02.654Z,1009.08
2017-07-26T05:35:03.176Z,1009.05
2017-07-26T05:40:02.694Z,1009.05
2017-07-26T05:45:03.053Z,1009.08
2017-07-26T05:50:03.479Z,1009.09
2017-07-26T05:55:02.734Z,1009.1
2017-07-26T06:00:03.108Z,1009.12
2017-07-26T06:05:03.384Z,1009.13
2017-07-26T06:10:02.743Z,1009.07
2017-07-26T06:15:03.270Z,1009.03
2017-07-26T06:20:02.760Z,1009.05
2017-07-26T06:25:03.228Z,1009.05
2017-07-26T06:30:02.696Z,1009.04
2017-07-26T06:35:03.191Z,1009.12
2017-07-26T06:40:02.773Z,1009.19
2017-07-26T06:45:03.097Z,1009.26
2017-07-26T06:50:02.607Z,1009.24
2017-07-26T06:55:03.127Z,1009.31
2017-07-26T07:00:03.401Z,1009.4
2017-07-26T07:05:03.106Z,1009.4
2017-07-26T07:10:02.684Z,1009.37
2017-07-26T07:15:03.171Z,1009.41
2017-07-26T07:20:02.654Z,1009.44
2017-07-26T07:25:03.081Z,1009.43
2017-07-26T07:30:03.389Z,1009.46
2017-07-26T07:35:02.845Z,1009.36
2017-07-26T07:40:03.201Z,1009.48
2017-07-26T07:45:02.691Z,1009.51
2017-07-26T07:50:03.220Z,1009.52
2017-07-26T07:55:02.573Z,1009.52
2017-07-26T08:00:02.944Z,1009.49
2017-07-26T08:05:03.469Z,1009.47
2017-07-26T08:10:02.960Z,1009.42
2017-07-26T08:15:03.380Z,1009.41
2017-07-26T08:20:02.654Z,1009.42
2017-07-26T08:25:02.930Z,1009.53
2017-07-26T08:30:03.481Z,1009.52
2017-07-26T08:35:02.950Z,1009.53
2017-07-26T08:40:03.319Z,1009.41
2017-07-26T08:45:02.631Z,1009.44
2017-07-26T08:50:03.146Z,1009.48
2017-07-26T08:55:03.466Z,1009.57
2017-07-26T09:00:02.951Z,1009.55
2017-07-26T09:05:03.244Z,1009.46
2017-07-26T09:10:02.571Z,1009.51
2017-07-26T09:15:03.125Z,1009.4
2017-07-26T09:20:02.664Z,1009.45
2017-07-26T09:25:03.047Z,1009.38
2017-07-26T09:30:03.383Z,1009.45
2017-07-26T09:35:02.678Z,1009.45
2017-07-26T09:40:03.197Z,1009.41
2017-07-26T09:45:02.705Z,1009.43
2017-07-26T09:50:03.027Z,1009.44
2017-07-26T09:55:03.485Z,1009.49
2017-07-26T10:00:02.761Z,1009.46
2017-07-26T10:05:03.153Z,1009.33
2017-07-26T10:10:02.735Z,1009.4
2017-07-26T10:15:03.029Z,1009.46
2017-07-26T10:20:03.383Z,1009.36
2017-07-26T10:25:02.750Z,1009.4
2017-07-26T10:30:03.285Z,1009.34
2017-07-26T10:35:02.622Z,1009.37
2017-07-26T10:40:03.222Z,1009.29
2017-07-26T10:45:02.725Z,1009.36
2017-07-26T10:50:03.161Z,1009.37
2017-07-26T10:55:03.416Z,1009.37
2017-07-26T11:00:02.786Z,1009.23
2017-07-26T11:05:03.237Z,1009.33
2017-07-26T11:10:02.645Z,1009.3
2017-07-26T11:15:02.966Z,1009.35
2017-07-26T11:20:02.615Z,1009.34
2017-07-26T11:25:02.901Z,1009.35
2017-07-26T11:30:03.241Z,1009.32
2017-07-26T11:35:02.641Z,1009.26
2017-07-26T11:40:03.165Z,1009.2
2017-07-26T11:45:03.475Z,1009.18
2017-07-26T11:50:02.915Z,1009.19
2017-07-26T11:55:03.283Z,1009.22
2017-07-26T12:00:02.610Z,1009.16
2017-07-26T12:05:02.947Z,1009.12
2017-07-26T12:10:03.307Z,1009.07
2017-07-26T12:15:02.720Z,1009.05
2017-07-26T12:20:03.282Z,1009.1
2017-07-26T12:25:02.782Z,1008.98
2017-07-26T12:30:03.361Z,1009.04
2017-07-26T12:35:02.802Z,1009.03
2017-07-26T12:40:03.288Z,1009
2017-07-26T12:45:02.740Z,1008.92
2017-07-26T12:50:03.345Z,1008.98
2017-07-26T12:55:02.797Z,1009.02
2017-07-26T13:00:03.159Z,1008.95
2017-07-26T13:05:02.764Z,1008.9
2017-07-26T13:10:03.158Z,1008.94
2017-07-26T13:15:03.493Z,1009.02
2017-07-26T13:20:02.980Z,1008.94
2017-07-26T13:25:03.481Z,1008.84
2017-07-26T13:30:02.770Z,1008.84
2017-07-26T13:35:03.231Z,1008.81
2017-07-26T13:40:02.821Z,1008.69
2017-07-26T13:45:03.289Z,1008.65
2017-07-26T13:50:02.632Z,1008.66
2017-07-26T13:55:03.198Z,1008.56
2017-07-26T14:00:02.710Z,1008.65
2017-07-26T14:05:03.001Z,1008.62
2017-07-26T14:10:02.629Z,1008.53
2017-07-26T14:15:03.055Z,1008.52
2017-07-26T14:20:03.493Z,1008.47
2017-07-26T14:25:02.756Z,1008.44
2017-07-26T14:30:03.036Z,1008.41
2017-07-26T14:35:03.331Z,1008.38
2017-07-26T14:40:02.830Z,1008.4
2017-07-26T14:45:03.327Z,1008.47
2017-07-26T14:50:02.790Z,1008.34
2017-07-26T14:55:03.205Z,1008.39
2017-07-26T15:00:03.523Z,1008.4
2017-07-26T15:05:02.803Z,1008.26
2017-07-26T15:10:03.393Z,1008.29
2017-07-26T15:15:02.709Z,1008.23
2017-07-26T15:20:03.209Z,1008.16
2017-07-26T15:25:02.554Z,1008.21
2017-07-26T15:30:02.882Z,1008.27
2017-07-26T15:35:03.415Z,1008.27
2017-07-26T15:40:02.913Z,1008.23
2017-07-26T15:45:03.434Z,1008.25
2017-07-26T15:50:02.672Z,1008.23
2017-07-26T15:55:03.165Z,1008.16
2017-07-26T16:00:02.643Z,1008.09
2017-07-26T16:05:03.098Z,1008.14
2017-07-26T16:10:02.712Z,1008.14
2017-07-26T16:15:03.018Z,1008.1
2017-07-26T16:20:03.494Z,1008.09
2017-07-26T16:25:02.973Z,1008.13
2017-07-26T16:30:03.289Z,1008.07
2017-07-26T16:35:02.757Z,1008.06
2017-07-26T16:40:03.218Z,1008.16
2017-07-26T16:45:02.803Z,1008.13
2017-07-26T16:50:03.389Z,1008.16
2017-07-26T16:55:02.856Z,1008.15
2017-07-26T17:00:03.280Z,1008.18
2017-07-26T17:05:02.793Z,1008.09
2017-07-26T17:10:03.214Z,1008.04
2017-07-26T17:15:02.646Z,1008.03
2017-07-26T17:20:02.992Z,1007.98
2017-07-26T17:25:03.473Z,1007.97
2017-07-26T17:30:02.748Z,1007.94
2017-07-26T17:35:03.156Z,1007.98
2017-07-26T17:40:03.533Z,1007.92
2017-07-26T17:45:02.946Z,1007.85
2017-07-26T17:50:03.424Z,1007.83
2017-07-26T17:55:02.852Z,1007.82
2017-07-26T18:00:03.317Z,1007.71
2017-07-26T18:05:02.591Z,1007.58
2017-07-26T18:10:03.132Z,1007.52
2017-07-26T18:15:02.565Z,1007.48
2017-07-26T18:20:03.031Z,1007.48
2017-07-26T18:25:03.304Z,1007.5
2017-07-26T18:30:02.644Z,1007.5
2017-07-26T18:35:03.081Z,1007.45
2017-07-26T18:40:02.640Z,1007.42
2017-07-26T18:45:03.135Z,1007.39
2017-07-26T18:50:03.422Z,1007.4
2017-07-26T18:55:02.756Z,1007.43
2017-07-26T19:00:03.266Z,1007.36
2017-07-26T19:05:02.746Z,1007.45
2017-07-26T19:10:03.277Z,1007.45
2017-07-26T19:15:02.813Z,1007.38
2017-07-26T19:20:03.250Z,1007.34
2017-07-26T19:25:02.742Z,1007.37
2017-07-26T19:30:03.084Z,1007.37
2017-07-26T19:35:03.415Z,1007.33
2017-07-26T19:40:03.044Z,1007.32
2017-07-26T19:45:02.692Z,1007.27
2017-07-26T19:50:03.225Z,1007.27
2017-07-26T19:55:02.765Z,1007.17
2017-07-26T20:00:03.242Z,1007.25
2017-07-26T20:05:02.670Z,1007.24
2017-07-26T20:10:03.212Z,1007.2
2017-07-26T20:15:03.520Z,1007.2
2017-07-26T20:20:02.964Z,1007.14
2017-07-26T20:25:03.298Z,1007.22
2017-07-26T20:30:02.587Z,1007.1
2017-07-26T20:35:03.204Z,1007.02
2017-07-26T20:40:02.751Z,1007.03
2017-07-26T20:45:03.101Z,1006.98
2017-07-26T20:50:02.574Z,1007.09
2017-07-26T20:55:03.094Z,1007.19
2017-07-26T21:00:02.515Z,1007.28
2017-07-26T21:05:02.882Z,1007.27
2017-07-26T21:10:03.402Z,1007.29
2017-07-26T21:15:02.757Z,1007.19
2017-07-26T21:20:03.266Z,1007.18
2017-07-26T21:25:02.676Z,1007.12
2017-07-26T21:30:03.192Z,1007.18
2017-07-26T21:35:03.503Z,1007.16
2017-07-26T21:40:03.046Z,1007.18
2017-07-26T21:45:03.337Z,1007.17
2017-07-26T21:50:02.841Z,1007.26
2017-07-26T21:55:03.170Z,1007.19
2017-07-26T22:00:02.644Z,1007.28
2017-07-26T22:05:03.038Z,1007.42
2017-07-26T22:10:02.581Z,1007.47
2017-07-26T22:15:02.954Z,1007.43
2017-07-26T22:20:03.430Z,1007.47
2017-07-26T22:25:02.658Z,1007.36
2017-07-26T22:30:03.187Z,1007.37
2017-07-26T22:35:02.732Z,1007.25
2017-07-26T22:40:03.283Z,1007.13
2017-07-26T22:45:02.575Z,1007.09
2017-07-26T22:50:03.130Z,1007.17
2017-07-26T22:55:02.586Z,1007.2
2017-07-26T23:00:03.271Z,1007.16
2017-07-26T23:05:03.294Z,1007.08
2017-07-26T23:10:02.671Z,1007.12
2017-07-26T23:15:03.129Z,1007.1
2017-07-26T23:20:03.425Z,1007.1
2017-07-26T23:25:02.720Z,1007.08
2017-07-26T23:30:03.057Z,1006.99
2017-07-26T23:35:03.337Z,1006.9
2017-07-26T23:40:02.871Z,1006.89
2017-07-26T23:45:03.384Z,1006.89
2017-07-26T23:50:02.827Z,1006.82
2017-07-26T23:55:03.333Z,1006.78
